Elefsis, Greece

5:09 AM EEST on September 23, 2014 (GMT +0300)
Elefsis Air Base | Change Station
CLOSE
Current Station
Airport
Location: Elefsis,
Elevation: 102 ft
Nearby Weather Stations

Elev 102 ft 38.06 °N, 23.56 °E | Updated 19 minutes ago

Clear
Clear
79 °F
Feels Like 79 °F
N
6
Wind Variable Wind from WNW

Today
High -- | Low -- °F
--% Chance of Precip.
Yesterday
High -- | Low -- °F
Precip. -- in
7:14 AM 7:21 PM
Waning Crescent, 1% visible
Pressure 29.77 in
Visibility -9999.0 miles
Clouds
Dew Point 63 °F
Humidity 57%
Rainfall 0.00 in
Snow Depth Not available.
UV Not available.
Pollen Not available.
Air Quality Not available.
Flu Activity Not available.
METAR LGEL 230150Z 30005KT CAVOK 26/17 Q1008

More Conditions Fewer Conditions

Pressure 29.77 in
Visibility -9999.0 miles
Clouds
Dew Point 63 °F
Humidity 57%
Rainfall 0.00 in
Snow Depth Not available.
UV Not available.
Pollen Not available.
Air Quality Not available.
Flu Activity Not available.
METAR LGEL 230150Z 30005KT CAVOK 26/17 Q1008

More Conditions Fewer Conditions

10-Day Weather Forecast

Almanac

Astronomy

Sep. 23, 2014 Rise Set
Actual Time 7:14 AM EEST 7:21 PM EEST
Civil Twilight 6:47 AM EEST 7:47 PM EEST
Nautical Twilight 6:17 AM EEST 8:18 PM EEST
Astronomical Twilight 5:45 AM EEST 8:49 PM EEST
Moon 6:21 AM EEST 6:50 PM EEST
Length of Visible Light 13h 00m
Length of Day
12h 07m
Tomorrow will be 2m 27s shorter.
Waning Crescent, 1% of the Moon is Illuminated
Sep 22
Waning Crescent
Sep 24
New
Oct 1
First Quarter
Oct 8
Full
Oct 15
Last Quarter

Yesterday's Extremes

Country Highs Country Lows

Community

WunderPhotos

Upload Photos

1,755,587 photos uploaded!

Nearby

Snow Depth

Not available.

Earthquake Activity

City Distance Mag. Time & Date
No recent earthquake activity has been reported nearby.
Minimum magnitude displayed is 2.5.

Coastal Water Temperatures

Place Temperature
No Stations Reporting

Nearby Weather Stations